createdAt,value
2022-12-18T00:01:27.767Z,-4.70
2022-12-18T00:03:56.206Z,-4.80
2022-12-18T00:06:24.864Z,-4.80
2022-12-18T00:08:52.202Z,-4.70
2022-12-18T00:11:23.248Z,-4.70
2022-12-18T00:13:50.792Z,-4.70
2022-12-18T00:16:23.050Z,-4.70
2022-12-18T00:18:51.845Z,-4.60
2022-12-18T00:21:31.751Z,-4.60
2022-12-18T00:23:59.854Z,-4.70
2022-12-18T00:26:30.070Z,-4.70
2022-12-18T00:28:59.245Z,-4.70
2022-12-18T00:31:27.110Z,-4.60
2022-12-18T00:33:58.374Z,-4.60
2022-12-18T00:36:28.334Z,-4.70
2022-12-18T00:38:57.178Z,-4.70
2022-12-18T00:41:43.237Z,-4.80
2022-12-18T00:44:12.799Z,-4.70
2022-12-18T00:46:39.665Z,-4.60
2022-12-18T00:49:07.905Z,-4.60
2022-12-18T00:51:34.773Z,-4.70
2022-12-18T00:54:01.549Z,-4.70
2022-12-18T00:56:28.311Z,-4.60
2022-12-18T00:58:55.154Z,-4.60
2022-12-18T01:01:22.417Z,-4.60
2022-12-18T01:03:49.549Z,-4.60
2022-12-18T01:06:16.976Z,-4.70
2022-12-18T01:08:43.758Z,-4.80
2022-12-18T01:11:19.321Z,-4.70
2022-12-18T01:13:46.501Z,-4.80
2022-12-18T01:16:17.533Z,-4.70
2022-12-18T01:18:44.748Z,-4.70
2022-12-18T01:21:15.451Z,-4.50
2022-12-18T01:23:42.723Z,-4.60
2022-12-18T01:26:12.228Z,-4.50
2022-12-18T01:28:39.051Z,-4.60
2022-12-18T01:31:20.903Z,-4.60
2022-12-18T01:33:47.737Z,-4.70
2022-12-18T01:36:45.441Z,-4.70
2022-12-18T01:39:14.603Z,-4.70
2022-12-18T01:42:00.450Z,-4.70
2022-12-18T01:44:56.904Z,-4.70
2022-12-18T01:47:33.406Z,-4.70
2022-12-18T01:50:04.509Z,-4.80
2022-12-18T01:52:33.547Z,-4.80
2022-12-18T01:55:01.691Z,-4.90
2022-12-18T01:57:29.547Z,-5.00
2022-12-18T02:00:04.439Z,-5.00
2022-12-18T02:02:31.866Z,-5.10
2022-12-18T02:05:00.345Z,-5.20
2022-12-18T02:08:01.172Z,-5.20
2022-12-18T02:11:02.451Z,-5.20
2022-12-18T02:13:44.129Z,-5.20
2022-12-18T02:16:18.457Z,-5.20
2022-12-18T02:18:49.789Z,-5.30
2022-12-18T02:21:20.146Z,-5.30
2022-12-18T02:24:12.823Z,-5.20
2022-12-18T02:26:56.200Z,-5.30
2022-12-18T02:29:28.460Z,-5.40
2022-12-18T02:31:58.777Z,-5.40
2022-12-18T02:34:30.871Z,-5.40
2022-12-18T02:36:59.385Z,-5.30
2022-12-18T02:39:28.700Z,-5.30
2022-12-18T02:41:56.146Z,-5.40
2022-12-18T02:44:22.861Z,-5.30
2022-12-18T02:46:54.383Z,-5.30
2022-12-18T02:49:32.373Z,-5.40
2022-12-18T02:52:19.469Z,-5.40
2022-12-18T02:55:09.509Z,-5.30
2022-12-18T02:57:46.397Z,-5.20
2022-12-18T03:00:18.907Z,-5.30
2022-12-18T03:03:00.315Z,-5.20
2022-12-18T03:05:41.260Z,-5.30
2022-12-18T03:08:19.114Z,-5.30
2022-12-18T03:11:08.843Z,-5.30
2022-12-18T03:13:46.827Z,-5.20
2022-12-18T03:16:18.507Z,-5.30
2022-12-18T03:18:53.948Z,-5.40
2022-12-18T03:21:25.352Z,-5.30
2022-12-18T03:23:53.548Z,-5.20
2022-12-18T03:26:27.278Z,-5.20
2022-12-18T03:29:07.338Z,-5.20
2022-12-18T03:31:34.191Z,-5.30
2022-12-18T03:34:05.206Z,-5.40
2022-12-18T03:36:32.008Z,-5.40
2022-12-18T03:38:58.807Z,-5.30
2022-12-18T03:41:28.584Z,-5.30
2022-12-18T03:44:10.041Z,-5.40
2022-12-18T03:47:07.808Z,-5.30
2022-12-18T03:49:59.145Z,-5.20
2022-12-18T03:53:01.702Z,-5.20
2022-12-18T03:55:31.887Z,-5.30
2022-12-18T03:57:59.628Z,-5.30
2022-12-18T04:00:26.649Z,-5.30
2022-12-18T04:02:56.400Z,-5.30
2022-12-18T04:05:25.258Z,-5.30
2022-12-18T04:07:54.878Z,-5.20
2022-12-18T04:10:21.668Z,-5.20
2022-12-18T04:12:48.633Z,-5.20
2022-12-18T04:15:15.959Z,-5.20
2022-12-18T04:17:49.602Z,-5.20
2022-12-18T04:20:17.138Z,-5.20
2022-12-18T04:22:43.924Z,-5.30
2022-12-18T04:25:14.080Z,-5.30
2022-12-18T04:27:40.813Z,-5.30
2022-12-18T04:30:08.486Z,-5.20
2022-12-18T04:32:35.677Z,-5.10
2022-12-18T04:35:02.992Z,-5.10
2022-12-18T04:37:29.704Z,-5.20
2022-12-18T04:39:56.569Z,-5.10
2022-12-18T04:42:23.271Z,-5.10
2022-12-18T04:44:50.026Z,-5.20
2022-12-18T04:47:16.748Z,-5.30
2022-12-18T04:49:43.511Z,-5.20
2022-12-18T04:52:10.274Z,-5.30
2022-12-18T04:54:37.008Z,-5.20
2022-12-18T04:57:03.875Z,-5.20
2022-12-18T04:59:30.673Z,-5.10
2022-12-18T05:01:57.471Z,-5.10
2022-12-18T05:04:24.352Z,-5.20
2022-12-18T05:06:51.051Z,-5.20
2022-12-18T05:09:17.742Z,-5.20
2022-12-18T05:11:46.272Z,-5.20
2022-12-18T05:14:13.337Z,-5.10
2022-12-18T05:16:40.018Z,-5.10
2022-12-18T05:19:06.816Z,-5.10
2022-12-18T05:21:33.596Z,-5.20
2022-12-18T05:24:00.376Z,-5.30
2022-12-18T05:26:27.087Z,-5.20
2022-12-18T05:28:53.810Z,-5.20
2022-12-18T05:31:20.599Z,-5.20
2022-12-18T05:33:47.396Z,-5.20
2022-12-18T05:36:14.174Z,-5.40
2022-12-18T05:38:41.468Z,-5.40
2022-12-18T05:41:09.547Z,-5.30
2022-12-18T05:43:39.114Z,-5.30
2022-12-18T05:46:14.637Z,-5.20
2022-12-18T05:48:42.346Z,-5.30
2022-12-18T05:51:12.297Z,-5.30
2022-12-18T05:53:39.820Z,-5.30
2022-12-18T05:56:12.793Z,-5.30
2022-12-18T05:58:39.696Z,-5.40
2022-12-18T06:01:16.479Z,-5.40
2022-12-18T06:03:43.874Z,-5.40
2022-12-18T06:06:29.752Z,-5.40
2022-12-18T06:08:57.758Z,-5.40
2022-12-18T06:11:27.138Z,-5.40
2022-12-18T06:13:59.590Z,-5.40
2022-12-18T06:16:28.869Z,-5.40
2022-12-18T06:19:04.302Z,-5.40
2022-12-18T06:21:31.657Z,-5.40
2022-12-18T06:23:59.071Z,-5.30
2022-12-18T06:26:28.343Z,-5.30
2022-12-18T06:28:55.586Z,-5.30
2022-12-18T06:31:22.402Z,-5.30
2022-12-18T06:33:49.205Z,-5.40
2022-12-18T06:36:15.913Z,-5.30
2022-12-18T06:38:44.304Z,-5.20
2022-12-18T06:41:14.475Z,-5.20
2022-12-18T06:43:41.672Z,-5.20
2022-12-18T06:46:09.644Z,-5.10
2022-12-18T06:48:36.516Z,-5.20
2022-12-18T06:51:03.481Z,-5.20
2022-12-18T06:53:30.565Z,-5.20
2022-12-18T06:56:09.389Z,-5.30
2022-12-18T06:58:36.979Z,-5.40
2022-12-18T07:01:06.069Z,-5.30
2022-12-18T07:03:32.977Z,-5.20
2022-12-18T07:05:59.786Z,-5.30
2022-12-18T07:08:26.883Z,-5.30
2022-12-18T07:10:56.482Z,-5.30
2022-12-18T07:13:23.765Z,-5.40
2022-12-18T07:15:50.732Z,-5.40
2022-12-18T07:18:17.431Z,-5.40
2022-12-18T07:20:45.129Z,-5.30
2022-12-18T07:23:12.702Z,-5.20
2022-12-18T07:25:40.417Z,-5.20
2022-12-18T07:28:07.184Z,-5.20
2022-12-18T07:30:34.432Z,-5.20
2022-12-18T07:33:01.236Z,-5.20
2022-12-18T07:35:27.993Z,-5.10
2022-12-18T07:37:54.725Z,-5.20
2022-12-18T07:40:21.572Z,-5.10
2022-12-18T07:42:48.341Z,-5.20
2022-12-18T07:45:15.151Z,-5.20
2022-12-18T07:47:42.383Z,-5.10
2022-12-18T07:50:09.349Z,-5.20
2022-12-18T07:52:36.070Z,-5.20
2022-12-18T07:55:03.897Z,-5.10
2022-12-18T08:00:17.631Z,-5.00
2022-12-18T08:02:44.744Z,-5.00
2022-12-18T08:05:11.634Z,-5.10
2022-12-18T08:07:38.948Z,-5.10
2022-12-18T08:10:06.498Z,-5.10
2022-12-18T08:12:33.521Z,-5.10
2022-12-18T08:15:00.278Z,-5.10
2022-12-18T08:17:27.083Z,-5.00
2022-12-18T08:19:53.860Z,-4.90
2022-12-18T08:22:20.594Z,-4.80
2022-12-18T08:24:47.437Z,-4.80
2022-12-18T08:27:28.897Z,-4.90
2022-12-18T08:29:57.147Z,-5.00
2022-12-18T08:32:24.705Z,-4.90
2022-12-18T08:34:51.542Z,-5.00
2022-12-18T08:37:18.266Z,-5.00
2022-12-18T08:39:45.120Z,-5.00
2022-12-18T08:42:30.291Z,-4.90
2022-12-18T08:44:57.384Z,-5.00
2022-12-18T08:47:24.155Z,-5.10
2022-12-18T08:49:50.876Z,-5.10
2022-12-18T08:52:17.608Z,-5.10
2022-12-18T08:54:44.415Z,-5.00
2022-12-18T08:57:11.090Z,-5.00
2022-12-18T08:59:37.813Z,-5.00
2022-12-18T09:02:04.673Z,-5.10
2022-12-18T09:04:31.543Z,-5.10
2022-12-18T09:06:58.262Z,-5.10
2022-12-18T09:09:25.366Z,-5.10
2022-12-18T09:11:52.267Z,-5.10
2022-12-18T09:14:19.012Z,-5.10
2022-12-18T09:16:45.793Z,-5.00
2022-12-18T09:19:12.613Z,-5.00
2022-12-18T09:21:47.825Z,-5.00
2022-12-18T09:24:16.213Z,-4.90
2022-12-18T09:26:46.945Z,-4.80
2022-12-18T09:29:15.793Z,-4.90
2022-12-18T09:31:43.539Z,-4.70
2022-12-18T09:34:10.234Z,-4.80
2022-12-18T09:36:37.059Z,-4.70
2022-12-18T09:39:08.075Z,-4.80
2022-12-18T09:41:46.100Z,-4.80
2022-12-18T09:44:25.351Z,-4.90
2022-12-18T09:47:07.242Z,-5.00
2022-12-18T09:49:38.344Z,-4.90
2022-12-18T09:52:30.074Z,-5.00
2022-12-18T09:55:06.880Z,-4.90
2022-12-18T09:57:36.634Z,-4.90
2022-12-18T10:00:15.115Z,-4.80
2022-12-18T10:02:42.026Z,-4.70
2022-12-18T10:05:13.345Z,-4.90
2022-12-18T10:08:11.369Z,-4.70
2022-12-18T10:10:57.020Z,-4.60
2022-12-18T10:13:36.363Z,-4.70
2022-12-18T10:16:33.636Z,-4.40
2022-12-18T10:19:15.064Z,-4.40
2022-12-18T10:22:17.459Z,-4.40
2022-12-18T10:24:44.412Z,-4.40
2022-12-18T10:27:16.671Z,-4.70
2022-12-18T10:29:45.596Z,-4.70
2022-12-18T10:32:25.909Z,-4.80
2022-12-18T10:35:00.010Z,-4.70
2022-12-18T10:37:30.111Z,-4.70
2022-12-18T10:40:26.304Z,-4.70
2022-12-18T10:43:26.675Z,-4.60
2022-12-18T10:46:08.446Z,-4.60
2022-12-18T10:48:40.239Z,-4.50
2022-12-18T10:51:12.078Z,-4.40
2022-12-18T10:53:42.876Z,-4.60
2022-12-18T10:56:09.948Z,-4.50
2022-12-18T10:58:38.592Z,-4.40
2022-12-18T11:01:22.116Z,-4.40
2022-12-18T11:03:53.562Z,-4.30
2022-12-18T11:06:25.511Z,-4.30
2022-12-18T11:09:13.281Z,-4.20
2022-12-18T11:11:41.346Z,-4.30
2022-12-18T11:14:20.929Z,-4.30
2022-12-18T11:17:23.877Z,-4.30
2022-12-18T11:19:38.902Z,-4.20
2022-12-18T11:22:21.623Z,-4.10
2022-12-18T11:25:30.142Z,-4.00
2022-12-18T11:27:50.563Z,-4.00
2022-12-18T11:30:38.647Z,-4.00
2022-12-18T11:33:11.287Z,-4.20
2022-12-18T11:35:53.895Z,-4.20
2022-12-18T11:38:48.093Z,-4.20
2022-12-18T11:41:22.274Z,-4.20
2022-12-18T11:43:53.722Z,-4.00
2022-12-18T11:46:30.848Z,-4.00
2022-12-18T11:49:19.668Z,-4.00
2022-12-18T11:52:29.463Z,-4.00
2022-12-18T11:55:01.016Z,-4.10
2022-12-18T11:57:55.803Z,-4.10
2022-12-18T12:00:23.647Z,-4.20
2022-12-18T12:03:09.277Z,-4.10
2022-12-18T12:06:02.880Z,-4.10
2022-12-18T12:09:04.121Z,-4.10
2022-12-18T12:11:54.949Z,-3.90
2022-12-18T12:14:54.007Z,-3.90
2022-12-18T12:17:36.268Z,-3.90
2022-12-18T12:20:17.652Z,-3.80
2022-12-18T12:23:15.960Z,-3.90
2022-12-18T12:26:27.866Z,-3.90
2022-12-18T12:28:57.354Z,-3.90
2022-12-18T12:31:33.173Z,-4.20
2022-12-18T12:34:35.474Z,-4.20
2022-12-18T12:37:33.596Z,-3.90
2022-12-18T12:40:11.026Z,-3.90
2022-12-18T12:43:15.728Z,-3.90
2022-12-18T12:46:04.169Z,-4.00
2022-12-18T12:48:45.781Z,-3.90
2022-12-18T12:51:38.991Z,-3.90
2022-12-18T12:54:12.607Z,-4.00
2022-12-18T12:56:57.408Z,-4.00
2022-12-18T12:59:27.717Z,-4.00
2022-12-18T13:02:11.890Z,-4.00
2022-12-18T13:04:57.757Z,-4.20
2022-12-18T13:07:42.553Z,-4.30
2022-12-18T13:10:20.866Z,-4.30
2022-12-18T13:13:07.091Z,-4.10
2022-12-18T13:15:46.091Z,-4.00
2022-12-18T13:18:24.222Z,-4.20
2022-12-18T13:21:24.378Z,-4.30
2022-12-18T13:23:51.817Z,-4.20
2022-12-18T13:26:23.205Z,-4.20
2022-12-18T13:28:56.882Z,-4.40
2022-12-18T13:31:42.678Z,-4.40
2022-12-18T13:34:26.864Z,-4.20
2022-12-18T13:36:56.576Z,-4.30
2022-12-18T13:42:32.119Z,-4.50
2022-12-18T13:44:59.126Z,-4.40
2022-12-18T13:47:34.369Z,-4.40
2022-12-18T13:50:03.844Z,-4.50
2022-12-18T13:52:38.207Z,-4.40
2022-12-18T13:55:12.585Z,-4.60
2022-12-18T13:57:41.780Z,-4.40
2022-12-18T14:00:26.244Z,-4.50
2022-12-18T14:02:53.809Z,-4.40
2022-12-18T14:05:27.903Z,-4.40
2022-12-18T14:07:55.684Z,-4.30
2022-12-18T14:13:17.329Z,-4.40
2022-12-18T14:15:48.641Z,-4.40
2022-12-18T14:18:46.113Z,-4.50
2022-12-18T14:21:28.889Z,-4.40
2022-12-18T14:24:14.364Z,-4.40
2022-12-18T14:26:41.571Z,-4.50
2022-12-18T14:29:30.416Z,-4.50
2022-12-18T14:32:09.419Z,-4.60
2022-12-18T14:34:38.966Z,-4.60
2022-12-18T14:37:06.000Z,-4.50
2022-12-18T14:39:32.788Z,-4.60
2022-12-18T14:41:59.521Z,-4.70
2022-12-18T14:44:28.626Z,-4.70
2022-12-18T14:47:01.468Z,-4.60
2022-12-18T14:49:31.893Z,-4.50
2022-12-18T14:52:00.972Z,-4.60
2022-12-18T14:54:28.974Z,-4.60
2022-12-18T14:57:01.357Z,-4.50
2022-12-18T14:59:29.956Z,-4.50
2022-12-18T15:02:16.924Z,-4.60
2022-12-18T15:04:44.971Z,-4.60
2022-12-18T15:10:08.632Z,-4.90
2022-12-18T15:12:36.913Z,-4.80
2022-12-18T15:15:04.919Z,-4.70
2022-12-18T15:17:33.493Z,-4.80
2022-12-18T15:20:03.563Z,-5.10
2022-12-18T15:22:37.324Z,-5.10
2022-12-18T15:25:24.091Z,-5.00
2022-12-18T15:27:50.940Z,-5.00
2022-12-18T15:30:20.730Z,-5.00
2022-12-18T15:32:48.604Z,-5.00
2022-12-18T15:35:23.840Z,-4.90
2022-12-18T15:37:52.364Z,-5.00
2022-12-18T15:40:24.826Z,-5.10
2022-12-18T15:43:14.004Z,-5.10
2022-12-18T15:45:41.132Z,-5.00
2022-12-18T15:48:23.161Z,-5.00
2022-12-18T15:50:54.218Z,-5.00
2022-12-18T15:53:21.137Z,-4.90
2022-12-18T15:56:06.665Z,-4.90
2022-12-18T15:58:34.306Z,-4.90
2022-12-18T16:01:02.344Z,-5.00
2022-12-18T16:03:29.325Z,-5.10
2022-12-18T16:05:56.199Z,-4.90
2022-12-18T16:08:24.105Z,-5.00
2022-12-18T16:10:50.858Z,-5.00
2022-12-18T16:13:20.705Z,-4.90
2022-12-18T16:15:47.871Z,-4.80
2022-12-18T16:18:14.636Z,-4.70
2022-12-18T16:20:41.723Z,-4.80
2022-12-18T16:23:08.692Z,-4.90
2022-12-18T16:25:35.504Z,-4.70
2022-12-18T16:28:02.343Z,-4.50
2022-12-18T16:30:38.143Z,-4.50
2022-12-18T16:33:05.750Z,-4.60
2022-12-18T16:35:34.717Z,-4.80
2022-12-18T16:38:01.371Z,-4.80
2022-12-18T16:40:28.084Z,-4.80
2022-12-18T16:42:54.773Z,-4.80
2022-12-18T16:45:21.472Z,-4.90
2022-12-18T16:47:48.195Z,-4.90
2022-12-18T16:50:14.949Z,-4.70
2022-12-18T16:52:42.188Z,-4.50
2022-12-18T16:55:09.580Z,-4.50
2022-12-18T16:57:36.351Z,-4.70
2022-12-18T17:00:05.938Z,-4.70
2022-12-18T17:02:33.505Z,-4.70
2022-12-18T17:05:00.581Z,-4.70
2022-12-18T17:07:28.274Z,-4.70
2022-12-18T17:09:55.316Z,-4.60
2022-12-18T17:12:22.827Z,-4.70
2022-12-18T17:14:49.791Z,-4.60
2022-12-18T17:17:22.709Z,-4.70
2022-12-18T17:19:51.694Z,-4.80
2022-12-18T17:22:18.834Z,-4.70
2022-12-18T17:24:47.255Z,-4.50
2022-12-18T17:27:14.161Z,-4.60
2022-12-18T17:29:46.763Z,-4.60
2022-12-18T17:32:15.007Z,-4.60
2022-12-18T17:34:41.674Z,-4.50
2022-12-18T17:37:09.000Z,-4.50
2022-12-18T17:39:35.729Z,-4.40
2022-12-18T17:42:02.391Z,-4.60
2022-12-18T17:44:29.122Z,-4.70
2022-12-18T17:46:56.104Z,-4.60
2022-12-18T17:49:22.787Z,-4.70
2022-12-18T17:51:49.669Z,-4.60
2022-12-18T17:54:16.298Z,-4.80
2022-12-18T17:56:43.117Z,-4.80
2022-12-18T17:59:09.784Z,-4.80
2022-12-18T18:01:42.441Z,-4.80
2022-12-18T18:04:10.680Z,-4.90
2022-12-18T18:06:39.107Z,-4.90
2022-12-18T18:09:15.929Z,-5.00
2022-12-18T18:12:03.256Z,-5.10
2022-12-18T18:14:30.143Z,-5.00
2022-12-18T18:16:57.357Z,-5.00
2022-12-18T18:19:30.470Z,-5.00
2022-12-18T18:21:57.094Z,-4.90
2022-12-18T18:24:24.135Z,-5.00
2022-12-18T18:26:51.244Z,-4.90
2022-12-18T18:29:23.529Z,-5.00
2022-12-18T18:31:50.250Z,-5.00
2022-12-18T18:34:22.317Z,-5.00
2022-12-18T18:36:49.339Z,-4.90
2022-12-18T18:39:16.097Z,-5.10
2022-12-18T18:41:47.179Z,-5.00
2022-12-18T18:44:20.447Z,-5.10
2022-12-18T18:46:50.066Z,-5.10
2022-12-18T18:49:16.705Z,-4.90
2022-12-18T18:51:43.351Z,-4.70
2022-12-18T18:54:10.635Z,-4.80
2022-12-18T18:59:31.332Z,-4.60
2022-12-18T19:01:59.861Z,-4.50
2022-12-18T19:04:30.774Z,-4.40
2022-12-18T19:06:57.399Z,-4.40
2022-12-18T19:09:24.831Z,-4.30
2022-12-18T19:12:10.877Z,-4.40
2022-12-18T19:14:37.586Z,-4.40
2022-12-18T19:17:04.248Z,-4.30
2022-12-18T19:19:31.205Z,-4.40
2022-12-18T19:21:57.856Z,-4.60
2022-12-18T19:24:24.553Z,-4.60
2022-12-18T19:26:52.105Z,-4.70
2022-12-18T19:29:20.420Z,-4.50
2022-12-18T19:31:47.119Z,-4.60
2022-12-18T19:34:13.891Z,-4.60
2022-12-18T19:36:41.069Z,-4.70
2022-12-18T19:39:19.244Z,-4.70
2022-12-18T19:41:47.044Z,-4.70
2022-12-18T19:44:17.376Z,-4.90
2022-12-18T19:46:46.163Z,-5.10
2022-12-18T19:49:17.563Z,-4.90
2022-12-18T19:51:45.506Z,-5.00
2022-12-18T19:54:16.774Z,-4.90
2022-12-18T19:56:44.357Z,-4.90
2022-12-18T19:59:11.040Z,-4.90
2022-12-18T20:01:37.956Z,-5.00
2022-12-18T20:04:05.177Z,-4.70
2022-12-18T20:06:46.270Z,-4.60
2022-12-18T20:09:12.946Z,-4.80
2022-12-18T20:11:41.821Z,-4.90
2022-12-18T20:14:10.623Z,-4.90
2022-12-18T20:16:37.770Z,-5.10
2022-12-18T20:19:05.303Z,-5.10
2022-12-18T20:21:32.199Z,-5.10
2022-12-18T20:24:00.008Z,-5.10
2022-12-18T20:26:26.954Z,-5.10
2022-12-18T20:28:54.942Z,-4.80
2022-12-18T20:31:22.189Z,-4.70
2022-12-18T20:33:51.117Z,-4.60
2022-12-18T20:36:22.433Z,-4.70
2022-12-18T20:38:51.800Z,-4.60
2022-12-18T20:41:22.949Z,-4.60
2022-12-18T20:43:49.963Z,-4.80
2022-12-18T20:46:18.105Z,-4.90
2022-12-18T20:48:45.773Z,-5.00
2022-12-18T20:51:15.112Z,-5.00
2022-12-18T20:53:42.789Z,-4.90
2022-12-18T20:56:12.676Z,-4.90
2022-12-18T20:58:39.328Z,-4.70
2022-12-18T21:01:11.765Z,-4.90
2022-12-18T21:03:40.100Z,-4.80
2022-12-18T21:06:08.238Z,-4.70
2022-12-18T21:08:34.975Z,-4.80
2022-12-18T21:11:38.228Z,-4.70
2022-12-18T21:14:09.927Z,-4.80
2022-12-18T21:16:36.973Z,-4.90
2022-12-18T21:19:03.809Z,-4.90
2022-12-18T21:21:30.454Z,-4.90
2022-12-18T21:24:02.411Z,-4.90
2022-12-18T21:26:29.144Z,-4.80
2022-12-18T21:28:58.046Z,-4.90
2022-12-18T21:31:27.002Z,-4.90
2022-12-18T21:33:56.213Z,-5.00
2022-12-18T21:36:28.633Z,-4.90
2022-12-18T21:38:56.202Z,-4.70
2022-12-18T21:41:42.518Z,-4.70
2022-12-18T21:44:12.602Z,-4.70
2022-12-18T21:46:42.276Z,-4.60
2022-12-18T21:49:10.124Z,-4.50
2022-12-18T21:51:37.255Z,-4.50
2022-12-18T21:54:04.409Z,-4.50
2022-12-18T21:56:53.080Z,-4.50
2022-12-18T21:59:22.411Z,-4.40
2022-12-18T22:01:50.483Z,-4.50
2022-12-18T22:04:18.592Z,-4.60
2022-12-18T22:06:46.439Z,-4.60
2022-12-18T22:09:15.792Z,-4.60
2022-12-18T22:11:43.012Z,-4.70
2022-12-18T22:14:10.175Z,-4.60
2022-12-18T22:16:37.147Z,-4.60
2022-12-18T22:19:05.512Z,-4.60
2022-12-18T22:21:37.712Z,-4.60
2022-12-18T22:24:07.213Z,-4.70
2022-12-18T22:26:39.838Z,-4.80
2022-12-18T22:29:31.511Z,-4.80
2022-12-18T22:32:00.232Z,-4.80
2022-12-18T22:34:26.987Z,-4.80
2022-12-18T22:36:53.919Z,-4.90
2022-12-18T22:39:23.324Z,-4.90
2022-12-18T22:41:51.420Z,-5.00
2022-12-18T22:44:18.297Z,-4.90
2022-12-18T22:47:02.868Z,-4.80
2022-12-18T22:49:35.220Z,-4.80
2022-12-18T22:52:06.682Z,-4.80
2022-12-18T22:54:33.386Z,-4.80
2022-12-18T22:57:00.043Z,-4.80
2022-12-18T22:59:26.687Z,-4.70
2022-12-18T23:01:57.979Z,-4.70
2022-12-18T23:04:36.334Z,-4.60
2022-12-18T23:07:05.436Z,-4.70
2022-12-18T23:09:33.312Z,-4.60
2022-12-18T23:12:00.620Z,-4.60
2022-12-18T23:14:28.837Z,-4.70
2022-12-18T23:16:55.508Z,-4.50
2022-12-18T23:19:23.503Z,-4.50
2022-12-18T23:21:51.165Z,-4.40
2022-12-18T23:24:17.818Z,-4.30
2022-12-18T23:26:44.460Z,-4.50
2022-12-18T23:29:11.128Z,-4.60
2022-12-18T23:31:39.117Z,-4.60
2022-12-18T23:34:07.011Z,-4.60
2022-12-18T23:36:45.616Z,-4.40
2022-12-18T23:39:28.667Z,-4.50
2022-12-18T23:41:57.821Z,-4.70
2022-12-18T23:44:24.626Z,-4.50
2022-12-18T23:46:51.541Z,-4.40
2022-12-18T23:49:18.438Z,-4.30
2022-12-18T23:51:47.794Z,-4.50
2022-12-18T23:54:14.562Z,-4.50
2022-12-18T23:56:41.324Z,-4.40
2022-12-18T23:59:08.083Z,-4.50
